William Tyndale — WBG7411 — position and weather

sailwx.info

Track history (hours):
 
Tides and Currents Weather Stations Pressure Air Temp Water Temp Dewpoint Dewpoint Depression Visibility Wind Speed Wind Dir Waves Ship Positions

William Tyndale

Last reported at 2017-Oct-19 20:31 UTC. Time now 2017-Oct-19 23:54 UTC.
Position N 47°16' W 122°23'.

Length 14 m; draft 2 m.

Type: Tug. MMSI: 367567010.

Date/timePositionNaut miles runAvg speedWind from/ knotsBaromVisibWave heightAir tempDewpointWater temp
2017-Oct-19 20:31N 47°16' W 122°23'0 0.0
2017-Oct-19 20:30N 47°16' W 122°23'0 0.1
2017-Oct-19 20:00N 47°16' W 122°23'0 0.0
2017-Oct-19 05:12N 47°16' W 122°23'0 0.7
2017-Oct-19 05:01N 47°17' W 122°23'3 6.0
2017-Oct-19 04:30N 47°18' W 122°27'3 6.3
2017-Oct-19 04:00N 47°20' W 122°31'3 6.5
2017-Oct-19 03:30N 47°17' W 122°32'5 9.4
2017-Oct-19 03:00N 47°13' W 122°36'4 6.0
2017-Oct-19 02:23N 47°15' W 122°40'3 5.6
2017-Oct-19 01:52N 47°17' W 122°42'2 5.4
2017-Oct-19 01:30N 47°19' W 122°42'2 0.5
2017-Oct-18 22:01N 47°20' W 122°39'0 0.1
2017-Oct-18 19:26N 47°20' W 122°40'2 4.2
2017-Oct-18 18:59N 47°19' W 122°42'2 4.7
2017-Oct-18 18:30N 47°17' W 122°41'5 4.8
2017-Oct-18 17:29N 47°13' W 122°36'2 4.5
2017-Oct-18 16:58N 47°15' W 122°35'1 2.9
2017-Oct-18 16:30N 47°16' W 122°34'1 2.0
2017-Oct-18 16:00N 47°17' W 122°33'2 4.5
2017-Oct-18 15:30N 47°19' W 122°34'2 4.7
2017-Oct-18 15:00N 47°19' W 122°31'5 5.2
2017-Oct-18 14:00N 47°17' W 122°24'1 1.1
2017-Oct-18 13:30N 47°16' W 122°23'0 0.0
2017-Oct-18 13:00N 47°16' W 122°23'0 0.0
2017-Oct-17 22:51N 47°16' W 122°23'0 0.1
2017-Oct-17 22:30N 47°16' W 122°23'0 0.0
2017-Oct-17 22:01N 47°16' W 122°23'0 0.0
2017-Oct-17 21:30N 47°16' W 122°23'0 0.0
2017-Oct-17 21:00N 47°16' W 122°23'0 0.0
2017-Oct-17 20:30N 47°16' W 122°23'0 0.0
2017-Oct-17 20:00N 47°16' W 122°23'0 0.0
2017-Oct-17 19:30N 47°16' W 122°23'0 0.0
2017-Oct-17 03:51N 47°17' W 122°23'2 6.0
2017-Oct-17 03:30N 47°18' W 122°26'3 6.5
2017-Oct-17 03:00N 47°19' W 122°30'2 4.4
2017-Oct-17 02:30N 47°18' W 122°32'5 9.3
2017-Oct-17 01:56N 47°13' W 122°35'4 6.8
2017-Oct-17 01:20N 47°11' W 122°40'6 5.5
2017-Oct-17 00:16N 47°11' W 122°49'3 6.4
2017-Oct-16 23:51N 47°10' W 122°52'3 6.0
2017-Oct-16 23:22N 47°09' W 122°56'2 2.6
2017-Oct-16 22:25N 47°06' W 122°58'1 3.6
2017-Oct-16 22:00N 47°08' W 122°57'3 6.0
2017-Oct-16 21:27N 47°10' W 122°53'3 6.6
2017-Oct-16 20:59N 47°11' W 122°49'5 5.2
2017-Oct-16 19:57N 47°11' W 122°41'3 6.1
2017-Oct-16 19:29N 47°12' W 122°37'4 9.0
2017-Oct-16 19:00N 47°16' W 122°33'4 7.2
2017-Oct-16 18:30N 47°19' W 122°32'3 6.7
2017-Oct-16 18:00N 47°18' W 122°27'3 5.9
2017-Oct-16 17:30N 47°17' W 122°23'0 0.1
2017-Oct-16 13:58N 47°16' W 122°23'  
2017-Oct-13 17:51N 47°16' W 122°23'1 3.3
2017-Oct-13 17:30N 47°17' W 122°24'1 2.0
2017-Oct-13 17:00N 47°16' W 122°25'1 2.6
2017-Oct-13 16:30N 47°17' W 122°23'0 0.4
2017-Oct-13 16:00N 47°16' W 122°23'0 0.0
2017-Oct-13 15:30N 47°16' W 122°23'0 0.0
2017-Oct-12 21:12N 47°16' W 122°23'0 0.0
2017-Oct-12 17:20N 47°16' W 122°23'2 6.1
2017-Oct-12 17:00N 47°17' W 122°25'1 2.0
2017-Oct-12 16:30N 47°17' W 122°24'1 0.4
2017-Oct-12 13:51N 47°16' W 122°23'0 0.2
2017-Oct-12 13:31N 47°16' W 122°23'0 0.4
2017-Oct-12 13:01N 47°17' W 122°23'1 1.5
2017-Oct-12 12:30N 47°16' W 122°24'1 1.1
2017-Oct-12 12:00N 47°17' W 122°24'0 0.0
2017-Oct-11 23:17N 47°16' W 122°23'1 3.6
2017-Oct-11 23:01N 47°17' W 122°24'3 6.3
2017-Oct-11 22:31N 47°19' W 122°28'3 6.4
2017-Oct-11 22:00N 47°20' W 122°33'4 7.7
2017-Oct-11 21:31N 47°16' W 122°33'4 7.8
2017-Oct-11 21:00N 47°13' W 122°36'10 0.5
2017-Oct-11 00:01N 47°17' W 122°23'0 0.0
2017-Oct-10 23:31N 47°17' W 122°23'0 0.0
2017-Oct-10 23:00N 47°17' W 122°23'0 0.4
2017-Oct-10 22:30N 47°17' W 122°23'0 0.3
2017-Oct-10 22:00N 47°16' W 122°23'0 0.0
2017-Oct-10 16:44N 47°16' W 122°23'1 5.3
2017-Oct-10 16:31N 47°17' W 122°24'2 3.0
2017-Oct-10 16:01N 47°17' W 122°27'2 3.8
2017-Oct-10 15:23N 47°17' W 122°23'0 0.2
2017-Oct-10 14:52N 47°17' W 122°23'0 0.1
2017-Oct-10 13:54N 47°16' W 122°23'0 0.0
2017-Oct-10 13:25N 47°16' W 122°23'0 0.2
2017-Oct-10 12:57N 47°16' W 122°23'  
Track history (hours):
 
Tides and Currents Weather Stations Pressure Air Temp Water Temp Dewpoint Dewpoint Depression Visibility Wind Speed Wind Dir Waves Ship Positions

William Tyndale

Last reported at 2017-Oct-19 20:31 UTC. Time now 2017-Oct-19 23:54 UTC.
Position N 47°16' W 122°23'.

Length 14 m; draft 2 m.

Type: Tug. MMSI: 367567010.

Date/timePositionNaut miles runAvg speedWind from/ knotsBaromVisibWave heightAir tempDewpointWater temp
2017-Oct-19 20:31N 47°16' W 122°23'0 0.0
2017-Oct-19 20:30N 47°16' W 122°23'0 0.1
2017-Oct-19 20:00N 47°16' W 122°23'0 0.0
2017-Oct-19 05:12N 47°16' W 122°23'0 0.7
2017-Oct-19 05:01N 47°17' W 122°23'3 6.0
2017-Oct-19 04:30N 47°18' W 122°27'3 6.3
2017-Oct-19 04:00N 47°20' W 122°31'3 6.5
2017-Oct-19 03:30N 47°17' W 122°32'5 9.4
2017-Oct-19 03:00N 47°13' W 122°36'4 6.0
2017-Oct-19 02:23N 47°15' W 122°40'3 5.6
2017-Oct-19 01:52N 47°17' W 122°42'2 5.4
2017-Oct-19 01:30N 47°19' W 122°42'2 0.5
2017-Oct-18 22:01N 47°20' W 122°39'0 0.1
2017-Oct-18 19:26N 47°20' W 122°40'2 4.2
2017-Oct-18 18:59N 47°19' W 122°42'2 4.7
2017-Oct-18 18:30N 47°17' W 122°41'5 4.8
2017-Oct-18 17:29N 47°13' W 122°36'2 4.5
2017-Oct-18 16:58N 47°15' W 122°35'1 2.9
2017-Oct-18 16:30N 47°16' W 122°34'1 2.0
2017-Oct-18 16:00N 47°17' W 122°33'2 4.5
2017-Oct-18 15:30N 47°19' W 122°34'2 4.7
2017-Oct-18 15:00N 47°19' W 122°31'5 5.2
2017-Oct-18 14:00N 47°17' W 122°24'1 1.1
2017-Oct-18 13:30N 47°16' W 122°23'0 0.0
2017-Oct-18 13:00N 47°16' W 122°23'0 0.0
2017-Oct-17 22:51N 47°16' W 122°23'0 0.1
2017-Oct-17 22:30N 47°16' W 122°23'0 0.0
2017-Oct-17 22:01N 47°16' W 122°23'0 0.0
2017-Oct-17 21:30N 47°16' W 122°23'0 0.0
2017-Oct-17 21:00N 47°16' W 122°23'0 0.0
2017-Oct-17 20:30N 47°16' W 122°23'0 0.0
2017-Oct-17 20:00N 47°16' W 122°23'0 0.0
2017-Oct-17 19:30N 47°16' W 122°23'0 0.0
2017-Oct-17 03:51N 47°17' W 122°23'2 6.0
2017-Oct-17 03:30N 47°18' W 122°26'3 6.5
2017-Oct-17 03:00N 47°19' W 122°30'2 4.4
2017-Oct-17 02:30N 47°18' W 122°32'5 9.3
2017-Oct-17 01:56N 47°13' W 122°35'4 6.8
2017-Oct-17 01:20N 47°11' W 122°40'6 5.5
2017-Oct-17 00:16N 47°11' W 122°49'3 6.4
2017-Oct-16 23:51N 47°10' W 122°52'3 6.0
2017-Oct-16 23:22N 47°09' W 122°56'2 2.6
2017-Oct-16 22:25N 47°06' W 122°58'1 3.6
2017-Oct-16 22:00N 47°08' W 122°57'3 6.0
2017-Oct-16 21:27N 47°10' W 122°53'3 6.6
2017-Oct-16 20:59N 47°11' W 122°49'5 5.2
2017-Oct-16 19:57N 47°11' W 122°41'3 6.1
2017-Oct-16 19:29N 47°12' W 122°37'4 9.0
2017-Oct-16 19:00N 47°16' W 122°33'4 7.2
2017-Oct-16 18:30N 47°19' W 122°32'3 6.7
2017-Oct-16 18:00N 47°18' W 122°27'3 5.9
2017-Oct-16 17:30N 47°17' W 122°23'0 0.1
2017-Oct-16 13:58N 47°16' W 122°23'  
2017-Oct-13 17:51N 47°16' W 122°23'1 3.3
2017-Oct-13 17:30N 47°17' W 122°24'1 2.0
2017-Oct-13 17:00N 47°16' W 122°25'1 2.6
2017-Oct-13 16:30N 47°17' W 122°23'0 0.4
2017-Oct-13 16:00N 47°16' W 122°23'0 0.0
2017-Oct-13 15:30N 47°16' W 122°23'0 0.0
2017-Oct-12 21:12N 47°16' W 122°23'0 0.0
2017-Oct-12 17:20N 47°16' W 122°23'2 6.1
2017-Oct-12 17:00N 47°17' W 122°25'1 2.0
2017-Oct-12 16:30N 47°17' W 122°24'1 0.4
2017-Oct-12 13:51N 47°16' W 122°23'0 0.2
2017-Oct-12 13:31N 47°16' W 122°23'0 0.4
2017-Oct-12 13:01N 47°17' W 122°23'1 1.5
2017-Oct-12 12:30N 47°16' W 122°24'1 1.1
2017-Oct-12 12:00N 47°17' W 122°24'0 0.0
2017-Oct-11 23:17N 47°16' W 122°23'1 3.6
2017-Oct-11 23:01N 47°17' W 122°24'3 6.3
2017-Oct-11 22:31N 47°19' W 122°28'3 6.4
2017-Oct-11 22:00N 47°20' W 122°33'4 7.7
2017-Oct-11 21:31N 47°16' W 122°33'4 7.8
2017-Oct-11 21:00N 47°13' W 122°36'10 0.5
2017-Oct-11 00:01N 47°17' W 122°23'0 0.0
2017-Oct-10 23:31N 47°17' W 122°23'0 0.0
2017-Oct-10 23:00N 47°17' W 122°23'0 0.4
2017-Oct-10 22:30N 47°17' W 122°23'0 0.3
2017-Oct-10 22:00N 47°16' W 122°23'0 0.0
2017-Oct-10 16:44N 47°16' W 122°23'1 5.3
2017-Oct-10 16:31N 47°17' W 122°24'2 3.0
2017-Oct-10 16:01N 47°17' W 122°27'2 3.8
2017-Oct-10 15:23N 47°17' W 122°23'0 0.2
2017-Oct-10 14:52N 47°17' W 122°23'0 0.1
2017-Oct-10 13:54N 47°16' W 122°23'0 0.0
2017-Oct-10 13:25N 47°16' W 122°23'0 0.2
2017-Oct-10 12:57N 47°16' W 122°23'  

Dump ship's entire track history